»·PEaware :: AAL225 KABQ-KPHX

AAL225 :: KABQ-KPHX

FLIGHT INFORMATION

Flight Status: Arrived
Operator:
American Airlines
More flights by this operator :: More flights under this callsign
Pilot: Michael R. (16974)
Aircraft: BOEING 737-800
(B738)
More flights by this aircraft type
Origin: KABQ Albuquerque Intl Sunport
United States
Destination: KPHX Phoenix Sky Harbor Intl
United States
More flights between these airports :: More routes between these airports
Route: +ADYOS3 ZUN EAGUL6
File this flight plan on PilotEdge
Remarks:
Altitude:
(Current/Filed)
32,000ft
Speed:
(Current/Filed)
430kts
Departed: 12-Apr-18 08:19 PM
Arrived: 12-Apr-18 09:18 PM
Distance/Time
Traveled:
284nm/0:59
Distance/Time
To Go:
Arrived

Flight Plot

Page will automatically refresh every two minutes.

Flight plan parsing failed; only flown route is shown


Map Options




Map Legend


Flown Route
Filed Route
Departure Airport
Arrival Airport
Navaid (VOR, NDB)
Fix

Horizontal Profiles

Position Reports

Time Latitude Longitude Heading Altitude Ground
Speed
12-Apr-18 19:46 35.046950 -106.617405 21 5362ft 0kts
12-Apr-18 19:47 35.046950 -106.617405 21 5362ft 0kts
12-Apr-18 19:48 35.046950 -106.617405 21 5362ft 0kts
12-Apr-18 19:49 35.046950 -106.617405 21 5362ft 0kts
12-Apr-18 19:50 35.046950 -106.617405 21 5362ft 0kts
12-Apr-18 19:51 35.046950 -106.617405 21 5362ft 0kts
12-Apr-18 19:52 35.046950 -106.617405 21 5362ft 0kts
12-Apr-18 19:53 35.046950 -106.617405 21 5362ft 0kts
12-Apr-18 19:54 35.046950 -106.617405 21 5362ft 0kts
12-Apr-18 19:55 35.046950 -106.617405 21 5362ft 0kts
12-Apr-18 19:56 35.046950 -106.617405 21 5362ft 0kts
12-Apr-18 19:57 35.046950 -106.617405 21 5362ft 0kts
12-Apr-18 19:58 35.046950 -106.617405 21 5362ft 0kts
12-Apr-18 19:59 35.046950 -106.617405 21 5362ft 0kts
12-Apr-18 20:00 35.046950 -106.617405 21 5362ft 0kts
12-Apr-18 20:01 35.046950 -106.617405 21 5362ft 0kts
12-Apr-18 20:02 35.046950 -106.617405 21 5362ft 0kts
12-Apr-18 20:03 35.046950 -106.617405 21 5362ft 0kts
12-Apr-18 20:04 35.046950 -106.617405 21 5362ft 0kts
12-Apr-18 20:05 35.046626 -106.617735 61 5362ft 2kts
12-Apr-18 20:06 35.046547 -106.618153 90 5362ft 0kts
12-Apr-18 20:07 35.046547 -106.618152 90 5362ft 0kts
12-Apr-18 20:08 35.046546 -106.618057 90 5362ft 2kts
12-Apr-18 20:09 35.046090 -106.617287 176 5362ft 0kts
12-Apr-18 20:10 35.046090 -106.617287 176 5362ft 0kts
12-Apr-18 20:11 35.046062 -106.617286 177 5362ft 1kts
12-Apr-18 20:12 35.045599 -106.614675 92 5362ft 14kts
12-Apr-18 20:13 35.045212 -106.613818 162 5362ft 0kts
12-Apr-18 20:14 35.042851 -106.613760 164 5362ft 17kts
12-Apr-18 20:15 35.042453 -106.609017 89 5362ft 14kts
12-Apr-18 20:16 35.042451 -106.608304 91 5362ft 0kts
12-Apr-18 20:17 35.042064 -106.607011 168 5362ft 13kts
12-Apr-18 20:18 35.034279 -106.616015 226 5362ft 136kts
12-Apr-18 20:19 35.007576 -106.660012 269 7528ft 197kts
12-Apr-18 20:20 35.014193 -106.735570 273 9022ft 238kts
12-Apr-18 20:21 35.027405 -106.819853 277 11265ft 276kts
12-Apr-18 20:22 35.045148 -106.915066 275 14571ft 300kts
12-Apr-18 20:23 35.045593 -107.015716 261 17810ft 304kts
12-Apr-18 20:24 35.042483 -107.119815 261 20773ft 312kts
12-Apr-18 20:25 35.039239 -107.226168 261 23395ft 318kts
12-Apr-18 20:26 35.035907 -107.334128 261 25703ft 324kts
12-Apr-18 20:27 35.032408 -107.445535 262 27623ft 334kts
12-Apr-18 20:28 35.028752 -107.559924 262 29389ft 342kts
12-Apr-18 20:29 35.025070 -107.672770 262 31280ft 339kts
12-Apr-18 20:30 35.020921 -107.788853 263 31893ft 362kts
12-Apr-18 20:31 35.016371 -107.915031 263 31877ft 376kts
12-Apr-18 20:32 35.011896 -108.038102 263 31875ft 376kts
12-Apr-18 20:33 35.007189 -108.165217 263 31874ft 376kts
12-Apr-18 20:34 35.002349 -108.292617 263 31871ft 376kts
12-Apr-18 20:35 34.997301 -108.422189 263 31869ft 387kts
12-Apr-18 20:36 34.992091 -108.553389 263 31867ft 388kts
12-Apr-18 20:37 34.986971 -108.679077 263 31865ft 388kts
12-Apr-18 20:38 34.981361 -108.808807 263 31861ft 388kts
12-Apr-18 20:39 34.975601 -108.939871 263 31859ft 388kts
12-Apr-18 20:40 34.969747 -109.070757 263 31863ft 387kts
12-Apr-18 20:41 34.952082 -109.198338 246 31895ft 384kts
12-Apr-18 20:42 34.908064 -109.317293 246 31878ft 385kts
12-Apr-18 20:43 34.867195 -109.428064 246 31885ft 385kts
12-Apr-18 20:44 34.823413 -109.546854 246 31883ft 385kts
12-Apr-18 20:45 34.781429 -109.660601 246 31888ft 385kts
12-Apr-18 20:46 34.737632 -109.778267 247 31895ft 383kts
12-Apr-18 20:47 34.693772 -109.895984 247 31959ft 383kts
12-Apr-18 20:48 34.649760 -110.013960 247 31974ft 383kts
12-Apr-18 20:49 34.596953 -110.126609 243 31969ft 385kts
12-Apr-18 20:50 34.543043 -110.238806 243 31968ft 385kts
12-Apr-18 20:51 34.488764 -110.351423 243 31959ft 383kts
12-Apr-18 20:52 34.437672 -110.456988 243 30434ft 363kts
12-Apr-18 20:53 34.387949 -110.559565 243 28608ft 349kts
12-Apr-18 20:54 34.341317 -110.655430 242 26678ft 322kts
12-Apr-18 20:55 34.297283 -110.745490 242 25065ft 326kts
12-Apr-18 20:56 34.251317 -110.839233 243 23152ft 321kts
12-Apr-18 20:57 34.207111 -110.929192 243 21492ft 305kts
12-Apr-18 20:58 34.163833 -111.017349 243 19719ft 296kts
12-Apr-18 20:59 34.121302 -111.098517 232 18105ft 289kts
12-Apr-18 21:00 34.066712 -111.168378 231 16554ft 285kts
12-Apr-18 21:01 34.012523 -111.237372 231 15031ft 283kts
12-Apr-18 21:02 33.958316 -111.306437 231 13578ft 284kts
12-Apr-18 21:03 33.905623 -111.373446 231 12167ft 271kts
12-Apr-18 21:04 33.853240 -111.431443 221 10945ft 271kts
12-Apr-18 21:05 33.791969 -111.482873 221 10403ft 273kts
12-Apr-18 21:06 33.730089 -111.535432 220 9810ft 270kts
12-Apr-18 21:07 33.678731 -111.579072 220 8779ft 229kts
12-Apr-18 21:08 33.629731 -111.620591 220 7886ft 215kts
12-Apr-18 21:09 33.581820 -111.660594 219 6987ft 218kts
12-Apr-18 21:10 33.532491 -111.701894 218 6061ft 220kts
12-Apr-18 21:11 33.483426 -111.743222 218 5135ft 223kts
12-Apr-18 21:12 33.451010 -111.788334 241 4128ft 210kts
12-Apr-18 21:13 33.439733 -111.847910 273 3385ft 175kts
12-Apr-18 21:14 33.440695 -111.900585 269 2643ft 146kts
12-Apr-18 21:15 33.440753 -111.944449 270 1918ft 125kts
12-Apr-18 21:16 33.440823 -111.990843 270 1208ft 117kts
12-Apr-18 21:17 33.440284 -112.007281 193 1142ft 0kts
12-Apr-18 21:18 33.438345 -112.007354 180 1142ft 21kts
12-Apr-18 21:19 33.437402 -112.008218 269 1142ft 0kts
12-Apr-18 21:20 33.437402 -112.008218 269 1142ft 0kts
12-Apr-18 21:21 33.437402 -112.008218 269 1142ft 0kts
12-Apr-18 21:22 33.437402 -112.008218 269 1142ft 0kts
12-Apr-18 21:23 33.437402 -112.008218 269 1142ft 0kts
12-Apr-18 21:24 33.437402 -112.008218 269 1142ft 0kts
12-Apr-18 21:25 33.437402 -112.008218 269 1142ft 0kts
12-Apr-18 21:26 33.437402 -112.008218 269 1142ft 0kts
12-Apr-18 21:27 33.437402 -112.008218 269 1142ft 0kts
12-Apr-18 21:28 33.437402 -112.008218 269 1142ft 0kts
12-Apr-18 21:29 33.437402 -112.008218 269 1142ft 0kts
12-Apr-18 21:30 33.437402 -112.008218 269 1142ft 0kts
12-Apr-18 21:31 33.437402 -112.008218 269 1142ft 0kts
12-Apr-18 21:32 33.437402 -112.008218 269 1142ft 0kts

Navigation Log

Ident Type
Flight plan parsing failed, navigation log unavailable